Terminal Aerodrome Forecast
Issued by NWS

Current Version | Previous Version | Graphics & Text | Print | Product List | Glossary On
Versions: 1 2 3 4 5 6 7 8 9 10 11 12 13 14 15 16 17 18 19
000
FTUS41 KRNK 182321
TAFLWB
TAF
KLWB 182321Z 1900/1924 12006KT P6SM FEW250
     FM190800 12006KT 4SM -RA BR BKN008
     FM191000 12005KT 4SM -RA BR OVC008
     FM191100 13005KT 4SM BR OVC008
     FM191300 14005KT P6SM OVC008
     FM192100 18004KT P6SM BKN035=

USA.gov is the U.S. government's official web portal to all federal, state and local government web resources and services.